Time;durP1;ratioP1;P1;durP2;ratioP2;P2;SDS_P1;SDS_P2;PMS_P1;PMS_P2;Temp;Humidity;BMP_temperature;BMP_pressure;BME280_temperature;BME280_humidity;BME280_pressure;Samples;Min_cycle;Max_cycle;Signal;HPM_P1;HPM_P2
2022/07/03 00:01:00;;;;;;;58.30;49.50;;;24.20;57.80;;;;;;5023089;27;93937;-56
2022/07/03 00:03:26;;;;;;;58.53;49.53;;;24.20;57.70;;;;;;5028113;27;90634;-55
2022/07/03 00:05:52;;;;;;;59.13;49.50;;;24.20;57.60;;;;;;5032475;27;89736;-54
2022/07/03 00:08:18;;;;;;;58.20;49.47;;;24.20;57.70;;;;;;5025169;27;90957;-54
2022/07/03 00:10:43;;;;;;;58.22;49.35;;;24.20;57.50;;;;;;5032107;27;90274;-55
2022/07/03 00:13:09;;;;;;;58.88;49.70;;;24.20;57.50;;;;;;5028901;27;94144;-57
2022/07/03 00:15:34;;;;;;;58.42;49.55;;;24.20;57.60;;;;;;5030147;27;89569;-57
2022/07/03 00:18:00;;;;;;;58.03;49.40;;;24.20;57.70;;;;;;5022425;27;90266;-56
2022/07/03 00:20:30;;;;;;;58.70;49.45;;;24.10;57.60;;;;;;5031885;27;90097;-55
2022/07/03 00:22:59;;;;;;;58.72;49.55;;;24.20;57.60;;;;;;5018238;27;91124;-56
2022/07/03 00:25:25;;;;;;;58.10;49.33;;;24.10;57.50;;;;;;5033581;27;89683;-52
2022/07/03 00:27:51;;;;;;;58.30;49.50;;;24.10;57.60;;;;;;5025906;27;90072;-51
2022/07/03 00:30:17;;;;;;;58.35;49.42;;;24.10;57.70;;;;;;5020674;27;89819;-51
2022/07/03 00:32:43;;;;;;;57.97;49.25;;;24.10;57.50;;;;;;5027991;27;90792;-54
2022/07/03 00:35:09;;;;;;;57.95;49.45;;;24.10;57.60;;;;;;5034038;27;90589;-56
2022/07/03 00:37:35;;;;;;;58.00;49.22;;;24.10;57.60;;;;;;5024205;27;90826;-53
2022/07/03 00:40:01;;;;;;;58.05;49.35;;;24.10;57.50;;;;;;5020601;27;89934;-57
2022/07/03 00:42:27;;;;;;;58.75;49.45;;;24.10;57.70;;;;;;5020667;27;89569;-56
2022/07/03 00:44:56;;;;;;;57.63;49.25;;;24.10;57.60;;;;;;5023919;27;89938;-57
2022/07/03 00:47:24;;;;;;;57.70;49.22;;;24.10;57.60;;;;;;5019074;27;90027;-54
2022/07/03 00:49:52;;;;;;;58.75;49.38;;;24.10;57.70;;;;;;5013155;27;92087;-54
2022/07/03 00:52:20;;;;;;;57.72;49.30;;;24.10;57.50;;;;;;5027396;27;90644;-55
2022/07/03 00:54:56;;;;;;;57.85;49.22;;;24.10;57.50;;;;;;5023497;27;90889;-54
2022/07/03 00:57:24;;;;;;;57.72;49.28;;;24.10;57.40;;;;;;5020054;27;93286;-57
2022/07/03 00:59:51;;;;;;;57.63;49.25;;;24.10;57.60;;;;;;5014352;27;93389;-56
2022/07/03 01:02:34;;;;;;;57.47;49.05;;;24.10;57.60;;;;;;5034799;27;90692;-52
2022/07/03 01:05:12;;;;;;;58.70;49.35;;;24.00;57.50;;;;;;5028183;27;91393;-53
2022/07/03 01:08:05;;;;;;;57.90;49.15;;;24.00;57.50;;;;;;5032057;27;90170;-54
2022/07/03 01:10:43;;;;;;;57.72;49.10;;;24.00;57.40;;;;;;5026582;27;92109;-56
2022/07/03 01:13:50;;;;;;;57.92;49.22;;;24.00;57.50;;;;;;5031088;27;90124;-56
2022/07/03 01:16:16;;;;;;;57.50;49.17;;;24.00;57.50;;;;;;4981007;27;89713;-54
2022/07/03 01:19:02;;;;;;;57.85;49.15;;;24.00;57.60;;;;;;5024278;27;92798;-55
2022/07/03 01:21:42;;;;;;;57.78;49.13;;;24.00;57.50;;;;;;5023878;27;89938;-55
2022/07/03 01:24:17;;;;;;;59.42;49.45;;;24.00;57.50;;;;;;5019251;27;91003;-53
2022/07/03 01:26:46;;;;;;;58.22;49.45;;;23.90;57.50;;;;;;5018892;27;89935;-51
2022/07/03 01:29:41;;;;;;;57.83;49.15;;;23.90;57.50;;;;;;5026223;27;93913;-56
2022/07/03 01:32:07;;;;;;;57.28;49.05;;;23.90;57.50;;;;;;4997037;27;89710;-54
2022/07/03 01:34:34;;;;;;;58.05;49.22;;;23.90;57.50;;;;;;5012814;27;89744;-55
2022/07/03 01:37:02;;;;;;;57.88;49.45;;;23.90;57.30;;;;;;5031597;27;89478;-56
2022/07/03 01:39:28;;;;;;;57.83;49.15;;;23.90;57.50;;;;;;5018403;27;90373;-56
2022/07/03 01:41:59;;;;;;;57.28;49.15;;;23.90;57.60;;;;;;5025350;27;89899;-54
2022/07/03 01:44:26;;;;;;;57.50;49.25;;;23.90;57.70;;;;;;5008288;27;91898;-57
2022/07/03 01:46:56;;;;;;;57.85;48.80;;;23.90;57.60;;;;;;5022762;27;90501;-55
2022/07/03 01:49:25;;;;;;;57.53;49.00;;;23.90;57.50;;;;;;5015206;27;91813;-55
2022/07/03 01:51:53;;;;;;;57.83;49.22;;;23.90;57.50;;;;;;5027248;27;89685;-57
2022/07/03 01:54:20;;;;;;;57.25;48.97;;;23.90;57.60;;;;;;5011788;27;90713;-56
2022/07/03 01:56:46;;;;;;;58.25;49.10;;;23.90;57.60;;;;;;5030509;27;89891;-57
2022/07/03 01:59:13;;;;;;;57.65;49.10;;;23.80;58.10;;;;;;5032624;27;90302;-57
2022/07/03 02:01:55;;;;;;;57.53;49.13;;;23.80;57.50;;;;;;5021533;27;89850;-53
2022/07/03 02:04:32;;;;;;;57.58;49.20;;;23.80;57.40;;;;;;5021852;27;89462;-52
2022/07/03 02:07:12;;;;;;;57.50;49.03;;;23.80;57.50;;;;;;5029978;27;92151;-56
2022/07/03 02:09:48;;;;;;;57.65;49.05;;;23.80;57.50;;;;;;5022601;27;90587;-55
2022/07/03 02:12:18;;;;;;;57.78;49.08;;;23.80;57.60;;;;;;5017705;27;90019;-54
2022/07/03 02:14:53;;;;;;;57.22;48.85;;;23.80;57.60;;;;;;5016132;27;90968;-57
2022/07/03 02:17:21;;;;;;;56.95;48.95;;;23.80;58.10;;;;;;5032604;27;92000;-56
2022/07/03 02:19:57;;;;;;;57.45;49.10;;;23.80;57.50;;;;;;5023962;27;90898;-54
2022/07/03 02:22:31;;;;;;;57.33;48.83;;;23.80;57.50;;;;;;5034078;27;89992;-52
2022/07/03 02:25:03;;;;;;;57.10;48.90;;;23.70;57.50;;;;;;5025426;27;93568;-55
2022/07/03 02:27:37;;;;;;;57.28;49.03;;;23.80;57.50;;;;;;5025653;27;91858;-56
2022/07/03 02:30:05;;;;;;;57.60;49.08;;;23.70;57.50;;;;;;5022435;27;89878;-52
2022/07/03 02:32:38;;;;;;;58.03;48.97;;;23.80;57.50;;;;;;5036080;27;91034;-55
2022/07/03 02:35:10;;;;;;;58.00;49.10;;;23.70;57.50;;;;;;5023293;27;90143;-57
2022/07/03 02:37:50;;;;;;;58.15;49.03;;;23.70;57.50;;;;;;5028042;27;89947;-56
2022/07/03 02:40:25;;;;;;;57.67;49.05;;;23.70;57.60;;;;;;5027544;27;91345;-56
2022/07/03 02:43:29;;;;;;;58.85;49.13;;;23.70;57.50;;;;;;5013156;27;91021;-56
2022/07/03 02:46:48;;;;;;;57.17;48.83;;;23.70;57.50;;;;;;5027264;27;89887;-57
2022/07/03 02:48:54;;;;;;;57.55;48.95;;;23.70;57.50;;;;;;5032829;27;89840;-56
2022/07/03 02:51:23;;;;;;;56.95;48.95;;;23.70;57.50;;;;;;5006384;27;91016;-56
2022/07/03 02:54:04;;;;;;;57.85;49.05;;;23.70;57.60;;;;;;5026373;27;90272;-54
2022/07/03 02:56:56;;;;;;;57.13;48.97;;;23.70;57.50;;;;;;5032695;27;89978;-57
2022/07/03 02:59:55;;;;;;;57.72;48.85;;;23.70;57.50;;;;;;5036333;27;88959;-55
2022/07/03 03:02:23;;;;;;;58.00;49.17;;;23.70;57.60;;;;;;4989632;27;91025;-52
2022/07/03 03:04:56;;;;;;;57.17;49.00;;;23.60;57.50;;;;;;5032983;27;90272;-57
2022/07/03 03:07:29;;;;;;;56.90;48.85;;;23.60;57.60;;;;;;5029054;27;91067;-55
2022/07/03 03:09:56;;;;;;;56.85;48.85;;;23.60;57.60;;;;;;5029233;27;90031;-54
2022/07/03 03:12:31;;;;;;;57.00;48.83;;;23.60;57.70;;;;;;5018489;27;91088;-55
2022/07/03 03:15:01;;;;;;;57.55;48.95;;;23.60;57.70;;;;;;5035027;27;89739;-57
2022/07/03 03:17:42;;;;;;;57.10;49.00;;;23.50;57.60;;;;;;5029692;27;90347;-58
2022/07/03 03:20:12;;;;;;;56.60;48.70;;;23.50;57.60;;;;;;5030429;27;89840;-55
2022/07/03 03:23:03;;;;;;;57.33;49.00;;;23.50;57.70;;;;;;5030256;27;92514;-56
2022/07/03 03:25:29;;;;;;;56.88;48.95;;;23.50;57.80;;;;;;5017145;27;89717;-57
2022/07/03 03:27:55;;;;;;;58.55;48.78;;;23.50;57.80;;;;;;5023482;27;89971;-54
2022/07/03 03:30:21;;;;;;;57.25;48.95;;;23.50;57.80;;;;;;5032238;27;90034;-56
2022/07/03 03:32:46;;;;;;;57.30;48.75;;;23.40;57.80;;;;;;5022179;27;93692;-53
2022/07/03 03:35:12;;;;;;;56.78;48.95;;;23.40;57.80;;;;;;5033361;27;90918;-56
2022/07/03 03:37:38;;;;;;;57.10;49.05;;;23.50;57.90;;;;;;5018232;27;90038;-56
2022/07/03 03:40:05;;;;;;;57.03;48.92;;;23.40;57.80;;;;;;5030766;27;89812;-50
2022/07/03 03:42:30;;;;;;;57.20;48.95;;;23.40;57.90;;;;;;5016199;27;89507;-55
2022/07/03 03:44:56;;;;;;;57.28;48.92;;;23.40;57.90;;;;;;5030345;27;90707;-51
2022/07/03 03:47:22;;;;;;;57.53;48.95;;;23.40;57.90;;;;;;5027432;27;89868;-57
2022/07/03 03:49:47;;;;;;;57.55;49.08;;;23.40;57.90;;;;;;5026490;27;88868;-57
2022/07/03 03:52:13;;;;;;;57.28;48.97;;;23.40;57.80;;;;;;5029375;27;90119;-53
2022/07/03 03:54:39;;;;;;;58.83;49.03;;;23.40;57.90;;;;;;5027418;27;90557;-54
2022/07/03 03:57:25;;;;;;;57.55;48.85;;;23.40;57.90;;;;;;5030924;27;91055;-56
2022/07/03 03:59:51;;;;;;;57.00;48.85;;;23.40;58.00;;;;;;5036631;27;90374;-54
2022/07/03 04:02:18;;;;;;;57.70;49.00;;;23.40;58.00;;;;;;5019060;27;89745;-55
2022/07/03 04:04:44;;;;;;;57.22;48.75;;;23.40;58.00;;;;;;5016967;27;90344;-54
2022/07/03 04:07:10;;;;;;;57.50;48.92;;;23.40;58.00;;;;;;5021808;27;90790;-52
2022/07/03 04:09:36;;;;;;;57.42;49.00;;;23.30;58.00;;;;;;5027030;27;91876;-57
2022/07/03 04:12:02;;;;;;;56.53;48.75;;;23.30;58.00;;;;;;5016570;27;90622;-54
2022/07/03 04:14:28;;;;;;;57.53;49.10;;;23.30;58.00;;;;;;5036251;27;90768;-56
2022/07/03 04:16:53;;;;;;;57.03;48.85;;;23.30;57.90;;;;;;5026864;27;90210;-55
2022/07/03 04:19:19;;;;;;;57.25;48.75;;;23.30;58.00;;;;;;5029413;27;90366;-56
2022/07/03 04:21:44;;;;;;;58.55;48.90;;;23.30;58.00;;;;;;5015405;27;91133;-57
2022/07/03 04:24:10;;;;;;;57.20;48.95;;;23.30;57.90;;;;;;5025529;27;90867;-54
2022/07/03 04:26:36;;;;;;;57.72;49.03;;;23.40;58.00;;;;;;5023184;27;90530;-49
2022/07/03 04:29:01;;;;;;;58.00;48.92;;;23.30;57.90;;;;;;5033700;27;90565;-53
2022/07/03 04:31:27;;;;;;;57.28;49.05;;;23.40;57.80;;;;;;5025978;27;90131;-57
2022/07/03 04:33:53;;;;;;;57.28;48.78;;;23.30;57.70;;;;;;5025343;27;89951;-53
2022/07/03 04:36:18;;;;;;;57.20;48.95;;;23.30;57.70;;;;;;5025751;27;90623;-56
2022/07/03 04:38:44;;;;;;;56.90;48.72;;;23.30;57.80;;;;;;5020436;27;90323;-51
2022/07/03 04:41:10;;;;;;;57.03;49.05;;;23.40;57.80;;;;;;5020956;27;90463;-56
2022/07/03 04:43:38;;;;;;;58.40;49.00;;;23.40;57.90;;;;;;5026778;27;91074;-58
2022/07/03 04:46:04;;;;;;;57.00;48.92;;;23.30;57.80;;;;;;5025832;27;91540;-55
2022/07/03 04:48:30;;;;;;;57.03;48.67;;;23.40;57.90;;;;;;5030013;27;89829;-57
2022/07/03 04:50:56;;;;;;;58.75;49.05;;;23.40;58.00;;;;;;5037141;27;90196;-57
2022/07/03 04:53:22;;;;;;;57.33;49.10;;;23.50;57.90;;;;;;5028358;27;89555;-55
2022/07/03 04:55:48;;;;;;;56.92;49.10;;;23.40;57.80;;;;;;5020982;27;89918;-55
2022/07/03 04:58:13;;;;;;;56.90;49.00;;;23.40;57.80;;;;;;5027863;27;90558;-54
2022/07/03 05:00:42;;;;;;;56.90;49.00;;;23.40;57.80;;;;;;5033092;27;89518;-57
2022/07/03 05:03:07;;;;;;;56.78;48.90;;;23.50;57.70;;;;;;5017371;27;89785;-50
2022/07/03 05:05:33;;;;;;;57.65;48.95;;;23.40;57.80;;;;;;5034560;27;89905;-53
2022/07/03 05:08:00;;;;;;;56.78;49.08;;;23.40;57.70;;;;;;5021364;27;89679;-56
2022/07/03 05:10:26;;;;;;;57.45;49.05;;;23.40;57.70;;;;;;5020862;27;91513;-56
2022/07/03 05:12:51;;;;;;;56.65;48.85;;;23.50;57.50;;;;;;5013808;27;90604;-57
2022/07/03 05:15:17;;;;;;;56.83;48.83;;;23.40;57.50;;;;;;5029796;27;90493;-55
2022/07/03 05:17:43;;;;;;;57.55;49.08;;;23.50;57.40;;;;;;5027435;27;89632;-54
2022/07/03 05:20:25;;;;;;;56.75;48.95;;;23.40;57.60;;;;;;5028753;27;90789;-54
2022/07/03 05:22:52;;;;;;;57.03;49.05;;;23.50;57.40;;;;;;5024601;27;89662;-56
2022/07/03 05:25:17;;;;;;;57.33;49.25;;;23.40;57.50;;;;;;5027293;27;89879;-57
2022/07/03 05:27:43;;;;;;;57.00;49.00;;;23.40;57.40;;;;;;5031507;27;89226;-55
2022/07/03 05:30:09;;;;;;;56.70;49.00;;;23.40;57.40;;;;;;5026991;27;91664;-55
2022/07/03 05:32:35;;;;;;;58.13;49.33;;;23.50;57.50;;;;;;5022119;27;91515;-56
2022/07/03 05:35:01;;;;;;;57.45;49.25;;;23.50;57.40;;;;;;5030912;27;90532;-57
2022/07/03 05:37:26;;;;;;;57.10;49.20;;;23.50;57.10;;;;;;5020259;27;89965;-54
2022/07/03 05:39:52;;;;;;;58.28;49.05;;;23.60;57.10;;;;;;5022909;27;90768;-57
2022/07/03 05:42:18;;;;;;;57.28;49.22;;;23.50;57.00;;;;;;5029509;27;90913;-57
2022/07/03 05:44:44;;;;;;;57.95;49.13;;;23.60;57.10;;;;;;5030820;27;90021;-56
2022/07/03 05:47:09;;;;;;;58.90;49.15;;;23.60;57.10;;;;;;5032853;27;89880;-55
2022/07/03 05:49:35;;;;;;;57.53;49.28;;;23.60;57.10;;;;;;5011917;27;90888;-56
2022/07/03 05:52:00;;;;;;;58.22;49.42;;;23.60;57.00;;;;;;5028704;27;90262;-56
2022/07/03 05:54:26;;;;;;;58.33;49.17;;;23.60;57.00;;;;;;5023462;27;92860;-55
2022/07/03 05:56:51;;;;;;;57.13;49.00;;;23.60;56.80;;;;;;5025310;27;89680;-57
2022/07/03 05:59:17;;;;;;;57.85;49.28;;;23.60;57.10;;;;;;5018873;27;91011;-56
2022/07/03 06:01:43;;;;;;;56.85;49.20;;;23.60;57.00;;;;;;5035473;27;89743;-57
2022/07/03 06:04:08;;;;;;;59.22;49.45;;;23.60;56.80;;;;;;5025337;27;89962;-56
2022/07/03 06:06:34;;;;;;;57.70;49.22;;;23.60;56.90;;;;;;5036059;27;90318;-54
2022/07/03 06:09:00;;;;;;;57.20;48.97;;;23.60;57.00;;;;;;5020502;27;91358;-56
2022/07/03 06:11:25;;;;;;;57.10;49.03;;;23.60;57.00;;;;;;5029745;27;89832;-55
2022/07/03 06:13:51;;;;;;;57.65;49.15;;;23.60;57.20;;;;;;5025908;27;89886;-57
2022/07/03 06:16:17;;;;;;;57.40;49.15;;;23.60;57.10;;;;;;5034236;27;89034;-57
2022/07/03 06:18:42;;;;;;;58.05;49.13;;;23.60;57.10;;;;;;5022684;27;89908;-55
2022/07/03 06:21:08;;;;;;;57.13;48.97;;;23.60;57.00;;;;;;5020364;27;89792;-52
2022/07/03 06:23:34;;;;;;;57.08;49.03;;;23.60;57.10;;;;;;5034317;27;92051;-55
2022/07/03 06:26:00;;;;;;;57.22;49.13;;;23.60;57.00;;;;;;5032593;27;90226;-56
2022/07/03 06:28:26;;;;;;;58.78;48.97;;;23.60;57.10;;;;;;5023096;27;93424;-57
2022/07/03 06:30:52;;;;;;;57.95;49.15;;;23.60;57.10;;;;;;5026447;27;91980;-53
2022/07/03 06:33:17;;;;;;;58.38;49.55;;;23.60;57.60;;;;;;5024357;27;90023;-57
2022/07/03 06:35:43;;;;;;;57.65;49.13;;;23.60;57.20;;;;;;5035297;27;90011;-49
2022/07/03 06:38:09;;;;;;;58.03;49.30;;;23.60;57.30;;;;;;5030834;27;90881;-57
2022/07/03 06:40:35;;;;;;;57.30;49.25;;;23.60;57.20;;;;;;5024281;27;90513;-56
2022/07/03 06:43:00;;;;;;;57.40;49.28;;;23.60;57.50;;;;;;5031637;27;89926;-54
2022/07/03 06:45:26;;;;;;;57.40;49.15;;;23.60;57.20;;;;;;5035034;27;89601;-52
2022/07/03 06:47:52;;;;;;;58.10;49.20;;;23.60;57.10;;;;;;5029314;27;91536;-57
2022/07/03 06:50:17;;;;;;;60.72;49.50;;;23.60;57.20;;;;;;5018213;27;90018;-54
2022/07/03 06:52:43;;;;;;;58.80;49.45;;;23.60;57.70;;;;;;5032125;27;89901;-53
2022/07/03 06:55:09;;;;;;;59.10;49.60;;;23.60;57.50;;;;;;5029562;27;93106;-57
2022/07/03 06:57:34;;;;;;;57.42;49.30;;;23.60;57.40;;;;;;5032635;27;89990;-53
2022/07/03 07:00:00;;;;;;;58.50;49.33;;;23.70;57.50;;;;;;5018016;27;90611;-53
2022/07/03 07:02:26;;;;;;;60.20;49.25;;;23.70;57.30;;;;;;5027710;27;89918;-55
2022/07/03 07:04:51;;;;;;;57.67;49.40;;;23.70;57.30;;;;;;5028646;27;90481;-55
2022/07/03 07:07:17;;;;;;;57.20;49.10;;;23.60;57.00;;;;;;5032827;27;90903;-57
2022/07/03 07:09:43;;;;;;;57.72;49.35;;;23.70;57.30;;;;;;5015225;27;91246;-55
2022/07/03 07:12:09;;;;;;;58.53;49.33;;;23.60;57.40;;;;;;5013049;27;90677;-55
2022/07/03 07:14:34;;;;;;;57.75;49.30;;;23.70;57.30;;;;;;5029188;27;89936;-54
2022/07/03 07:17:00;;;;;;;58.95;49.25;;;23.70;57.40;;;;;;5033599;27;90509;-55
2022/07/03 07:19:26;;;;;;;57.88;49.33;;;23.70;57.40;;;;;;5034126;27;89926;-56
2022/07/03 07:21:51;;;;;;;58.38;49.25;;;23.60;57.50;;;;;;5027708;27;89985;-51
2022/07/03 07:24:17;;;;;;;58.80;49.20;;;23.60;57.30;;;;;;5026083;27;89650;-57
2022/07/03 07:26:42;;;;;;;59.40;49.40;;;23.70;57.20;;;;;;5036432;27;90017;-55
2022/07/03 07:29:08;;;;;;;57.97;49.33;;;23.70;57.10;;;;;;5013687;27;88878;-56
2022/07/03 07:31:34;;;;;;;60.72;49.33;;;23.70;57.10;;;;;;5030292;27;90108;-57
2022/07/03 07:33:59;;;;;;;57.97;49.50;;;23.70;57.30;;;;;;5030740;27;89691;-54
2022/07/03 07:36:25;;;;;;;58.08;49.28;;;23.70;57.30;;;;;;5034900;27;91035;-55
2022/07/03 07:38:51;;;;;;;57.90;49.25;;;23.70;57.10;;;;;;5031751;27;90555;-57
2022/07/03 07:41:16;;;;;;;60.28;49.35;;;23.70;57.20;;;;;;5029155;27;90075;-54
2022/07/03 07:43:42;;;;;;;59.35;49.53;;;23.70;57.20;;;;;;5026446;27;89538;-53
2022/07/03 07:46:08;;;;;;;58.45;49.38;;;23.70;57.20;;;;;;5026232;27;90352;-57
2022/07/03 07:48:36;;;;;;;58.92;49.50;;;23.70;57.10;;;;;;5025728;27;90019;-56
2022/07/03 07:51:02;;;;;;;58.67;49.53;;;23.70;57.00;;;;;;5023464;27;89436;-55
2022/07/03 07:53:28;;;;;;;58.22;49.45;;;23.70;57.10;;;;;;5034574;27;89133;-56
2022/07/03 07:55:53;;;;;;;57.55;49.25;;;23.70;57.00;;;;;;5025081;27;92637;-57
2022/07/03 07:58:19;;;;;;;57.97;49.20;;;23.80;56.90;;;;;;5029219;27;89974;-50
2022/07/03 08:06:16;;;;;;;57.95;49.22;;;23.70;57.00;;;;;;5025569;27;90334;-51
2022/07/03 08:08:42;;;;;;;58.38;49.38;;;23.80;57.00;;;;;;5016555;27;91473;-54
2022/07/03 08:11:08;;;;;;;58.10;49.45;;;23.70;57.00;;;;;;5021504;27;90339;-54
2022/07/03 08:13:33;;;;;;;58.55;49.60;;;23.70;57.10;;;;;;5023377;27;90146;-54
2022/07/03 08:15:59;;;;;;;59.75;49.80;;;23.70;56.90;;;;;;5028697;27;89622;-57
2022/07/03 08:18:25;;;;;;;58.25;49.60;;;23.70;57.10;;;;;;5031126;27;92766;-55
2022/07/03 08:20:50;;;;;;;58.40;49.70;;;23.70;57.10;;;;;;5026385;27;91553;-57
2022/07/03 08:23:16;;;;;;;58.35;49.33;;;23.70;57.10;;;;;;5026838;27;92526;-54
2022/07/03 08:25:42;;;;;;;57.85;49.33;;;23.70;57.00;;;;;;5026336;27;92961;-54
2022/07/03 08:28:08;;;;;;;58.08;49.45;;;23.70;57.20;;;;;;5029694;27;91433;-54
2022/07/03 08:30:33;;;;;;;58.58;49.58;;;23.70;57.20;;;;;;5022318;27;89591;-57
2022/07/03 08:32:59;;;;;;;58.50;49.63;;;23.70;57.10;;;;;;5013024;27;91097;-55
2022/07/03 08:35:26;;;;;;;58.22;49.63;;;23.70;57.10;;;;;;5026075;27;90180;-50
2022/07/03 08:37:52;;;;;;;58.33;49.70;;;23.70;57.10;;;;;;5030957;27;89950;-52
2022/07/03 08:40:19;;;;;;;59.53;49.65;;;23.70;57.20;;;;;;5017217;27;89945;-52
2022/07/03 08:43:00;;;;;;;58.30;49.60;;;23.70;57.10;;;;;;5035123;27;89243;-52
2022/07/03 08:45:27;;;;;;;59.83;49.65;;;23.70;57.10;;;;;;5023081;27;92773;-55
2022/07/03 08:47:58;;;;;;;58.78;49.60;;;23.70;57.00;;;;;;5028822;27;90394;-53
2022/07/03 08:50:24;;;;;;;58.45;49.53;;;23.70;57.00;;;;;;5006014;27;91236;-53
2022/07/03 08:52:50;;;;;;;58.05;49.50;;;23.80;56.90;;;;;;5033038;27;90242;-51
2022/07/03 08:55:17;;;;;;;58.50;49.55;;;23.70;56.90;;;;;;5024711;27;90220;-56
2022/07/03 08:57:45;;;;;;;58.60;49.58;;;23.80;57.00;;;;;;5031263;27;90145;-54
2022/07/03 09:00:17;;;;;;;60.05;49.55;;;23.80;57.10;;;;;;5023420;27;89665;-55
2022/07/03 09:02:44;;;;;;;59.25;49.72;;;23.70;57.00;;;;;;5025473;27;92587;-54
2022/07/03 09:05:14;;;;;;;59.35;49.58;;;23.80;57.10;;;;;;5004765;27;92186;-54
2022/07/03 09:07:42;;;;;;;58.72;49.63;;;23.70;57.00;;;;;;5028894;27;93710;-54
2022/07/03 09:10:16;;;;;;;58.60;49.92;;;23.80;57.10;;;;;;5023582;27;89905;-54
2022/07/03 09:12:44;;;;;;;58.95;49.75;;;23.80;57.20;;;;;;5034076;27;90093;-54
2022/07/03 09:15:10;;;;;;;58.65;49.63;;;23.80;56.90;;;;;;5034248;27;90795;-52
2022/07/03 09:17:37;;;;;;;59.45;49.80;;;23.80;56.90;;;;;;5016834;27;89931;-50
2022/07/03 09:20:05;;;;;;;58.92;49.72;;;23.80;57.00;;;;;;5021073;27;89593;-50
2022/07/03 09:22:36;;;;;;;58.38;49.55;;;23.80;57.00;;;;;;5020977;27;93316;-55
2022/07/03 09:25:06;;;;;;;59.53;49.70;;;23.80;57.10;;;;;;5030336;27;89485;-53
2022/07/03 09:27:32;;;;;;;58.70;49.70;;;23.80;57.20;;;;;;5024684;27;97109;-50
2022/07/03 09:29:59;;;;;;;58.85;49.63;;;23.80;57.30;;;;;;5032002;27;89784;-55
2022/07/03 09:32:30;;;;;;;58.70;49.75;;;23.80;57.30;;;;;;5023352;27;89067;-55
2022/07/03 09:35:20;;;;;;;59.03;49.83;;;23.80;57.30;;;;;;5031261;27;89951;-51
2022/07/03 09:37:57;;;;;;;58.28;49.50;;;23.90;57.20;;;;;;5025151;27;90282;-50
2022/07/03 09:40:24;;;;;;;58.38;49.55;;;23.90;57.10;;;;;;5031162;27;90572;-53
2022/07/03 09:43:06;;;;;;;58.92;49.88;;;23.90;57.10;;;;;;5020462;27;89911;-53
2022/07/03 09:45:56;;;;;;;58.88;49.85;;;24.00;57.20;;;;;;5024464;27;89840;-55
2022/07/03 09:48:42;;;;;;;58.65;49.83;;;23.90;57.20;;;;;;5020088;27;89944;-54
2022/07/03 09:51:23;;;;;;;59.35;49.92;;;24.00;57.20;;;;;;5020844;27;90082;-54
2022/07/03 09:53:48;;;;;;;;;;;24.00;57.00;;;;;;5031770;27;89626;-53
2022/07/03 09:56:16;;;;;;;59.67;49.63;;;24.00;57.00;;;;;;5027989;27;90466;-54
2022/07/03 09:58:58;;;;;;;59.05;49.80;;;24.00;57.00;;;;;;5030932;27;88947;-52
2022/07/03 10:01:24;;;;;;;58.95;49.65;;;24.00;57.10;;;;;;5021069;27;90219;-55
2022/07/03 10:03:49;;;;;;;58.63;49.83;;;24.00;57.10;;;;;;5015231;27;91946;-52
2022/07/03 10:06:15;;;;;;;58.72;49.67;;;24.00;57.00;;;;;;5021842;27;94177;-51
2022/07/03 10:08:43;;;;;;;59.38;49.85;;;24.00;57.00;;;;;;5021094;27;91599;-49
2022/07/03 10:11:09;;;;;;;58.75;49.90;;;24.10;57.10;;;;;;5016414;27;89989;-48
2022/07/03 10:13:40;;;;;;;59.00;49.70;;;24.10;57.10;;;;;;5019249;27;91226;-53
2022/07/03 10:16:07;;;;;;;59.22;49.80;;;24.10;57.10;;;;;;5026415;27;90322;-50
2022/07/03 10:18:37;;;;;;;58.95;50.05;;;24.10;57.10;;;;;;5017686;27;94231;-53
2022/07/03 10:21:06;;;;;;;59.88;49.85;;;24.10;57.10;;;;;;5020981;27;90326;-48
2022/07/03 10:23:32;;;;;;;59.30;49.85;;;24.10;57.10;;;;;;5022255;27;89101;-52
2022/07/03 10:25:58;;;;;;;59.08;49.75;;;24.10;57.00;;;;;;5026305;27;90281;-51
2022/07/03 10:28:24;;;;;;;58.88;49.83;;;24.10;56.90;;;;;;5016367;27;90039;-51
2022/07/03 10:30:50;;;;;;;58.92;49.85;;;24.10;56.80;;;;;;5026328;27;91559;-53
2022/07/03 10:33:15;;;;;;;58.50;49.78;;;24.20;56.90;;;;;;5002270;27;89868;-51
2022/07/03 10:35:49;;;;;;;58.75;49.63;;;24.10;56.70;;;;;;5023716;27;89864;-55
2022/07/03 10:38:33;;;;;;;58.85;49.75;;;24.20;56.80;;;;;;5021505;27;92290;-50
2022/07/03 10:46:37;;;;;;;59.03;49.72;;;24.20;56.70;;;;;;5025377;27;89522;-51
2022/07/03 10:49:05;;;;;;;58.85;49.95;;;24.10;56.70;;;;;;5002150;27;90199;-52
2022/07/03 10:51:50;;;;;;;58.97;49.85;;;24.10;56.70;;;;;;5019701;27;90090;-54
2022/07/03 10:54:18;;;;;;;58.78;49.75;;;24.10;56.80;;;;;;5029342;27;91332;-52
2022/07/03 10:57:02;;;;;;;60.10;49.85;;;24.10;56.70;;;;;;5019819;27;91557;-50
2022/07/03 10:59:37;;;;;;;59.05;49.80;;;24.10;56.80;;;;;;5025551;27;91918;-54
2022/07/03 11:02:21;;;;;;;59.25;49.78;;;24.20;56.80;;;;;;5026128;27;89647;-50
2022/07/03 11:05:13;;;;;;;60.45;50.13;;;24.20;56.70;;;;;;5031874;27;89757;-55
2022/07/03 11:07:44;;;;;;;59.15;49.80;;;24.20;56.90;;;;;;5022551;27;90167;-52
2022/07/03 11:10:13;;;;;;;59.25;50.05;;;24.20;57.00;;;;;;5031704;27;89771;-50
2022/07/03 11:12:57;;;;;;;58.80;49.85;;;24.20;57.00;;;;;;5020349;27;90190;-54
2022/07/03 11:15:45;;;;;;;59.45;49.85;;;24.20;56.90;;;;;;5035759;27;89299;-53
2022/07/03 11:18:19;;;;;;;59.85;49.90;;;24.20;56.80;;;;;;5023613;27;89378;-52
2022/07/03 11:20:45;;;;;;;59.03;49.88;;;24.20;56.80;;;;;;5025071;27;92396;-53
2022/07/03 11:23:13;;;;;;;59.08;49.95;;;24.30;56.80;;;;;;5029031;27;91006;-52
2022/07/03 11:25:50;;;;;;;59.13;49.90;;;24.30;56.80;;;;;;5033933;27;90178;-52
2022/07/03 11:28:33;;;;;;;59.35;50.00;;;24.30;56.80;;;;;;5031197;27;89892;-54
2022/07/03 11:31:11;;;;;;;61.45;49.85;;;24.30;56.80;;;;;;5032760;27;90413;-54
2022/07/03 11:33:46;;;;;;;60.13;49.85;;;24.30;56.80;;;;;;5025507;27;90086;-51
2022/07/03 11:36:25;;;;;;;58.75;49.88;;;24.30;56.80;;;;;;5033953;27;89869;-49
2022/07/03 11:38:59;;;;;;;59.92;49.92;;;24.30;56.80;;;;;;5024524;27;90813;-51
2022/07/03 11:41:45;;;;;;;59.25;49.90;;;24.30;56.80;;;;;;5013852;27;92284;-53
2022/07/03 11:44:16;;;;;;;59.17;49.90;;;24.30;56.70;;;;;;5026228;27;89806;-54
2022/07/03 11:46:47;;;;;;;59.15;50.05;;;24.30;56.70;;;;;;5032339;27;90016;-54
2022/07/03 11:49:14;;;;;;;;;;;24.40;56.70;;;;;;5024791;27;91280;-50
2022/07/03 11:52:01;;;;;;;60.03;49.75;;;24.40;56.70;;;;;;5031567;27;89442;-47
2022/07/03 11:54:51;;;;;;;58.97;49.83;;;24.40;56.60;;;;;;5022274;27;90123;-55
2022/07/03 11:57:17;;;;;;;58.67;49.83;;;24.40;56.50;;;;;;5015739;27;89767;-50
2022/07/03 11:59:43;;;;;;;59.35;50.00;;;24.40;56.50;;;;;;5021645;27;91723;-52
2022/07/03 12:02:08;;;;;;;58.97;49.95;;;24.40;56.50;;;;;;5030122;27;90068;-53
2022/07/03 12:04:34;;;;;;;59.28;49.80;;;24.40;56.50;;;;;;5020754;27;89614;-50
2022/07/03 12:07:01;;;;;;;59.95;49.75;;;24.40;56.50;;;;;;5037298;27;88576;-50
2022/07/03 12:09:35;;;;;;;59.45;49.95;;;24.30;56.50;;;;;;5024123;27;90423;-53
2022/07/03 12:12:09;;;;;;;59.28;50.05;;;24.30;56.50;;;;;;5021817;27;90979;-53
2022/07/03 12:14:48;;;;;;;59.00;49.92;;;24.30;56.60;;;;;;5022166;27;91208;-52
2022/07/03 12:17:18;;;;;;;59.33;49.90;;;24.30;56.60;;;;;;5023021;27;89981;-49
2022/07/03 12:19:46;;;;;;;59.03;49.85;;;24.40;56.70;;;;;;5022921;27;90266;-52
2022/07/03 12:22:12;;;;;;;59.35;49.88;;;24.40;56.70;;;;;;5029236;27;90937;-53
2022/07/03 12:24:38;;;;;;;58.65;49.72;;;24.40;57.30;;;;;;5028655;27;89911;-50
2022/07/03 12:27:04;;;;;;;58.97;49.83;;;24.40;56.70;;;;;;5023987;27;89923;-51
2022/07/03 12:29:31;;;;;;;59.08;49.95;;;24.30;56.60;;;;;;5015887;27;91614;-54
2022/07/03 12:31:57;;;;;;;58.92;49.83;;;24.30;56.60;;;;;;5033023;27;88860;-48
2022/07/03 12:34:23;;;;;;;60.20;50.05;;;24.40;56.70;;;;;;5024971;27;93621;-53
2022/07/03 12:36:59;;;;;;;59.13;50.03;;;24.40;56.70;;;;;;5032604;27;91078;-50
2022/07/03 12:39:47;;;;;;;59.85;49.97;;;24.40;56.60;;;;;;5012004;27;92437;-51
2022/07/03 12:42:14;;;;;;;59.30;49.97;;;24.40;56.70;;;;;;5031130;27;90791;-54
2022/07/03 12:44:39;;;;;;;59.22;50.05;;;24.40;56.80;;;;;;5010442;27;89636;-52
2022/07/03 12:47:05;;;;;;;59.50;50.13;;;24.40;56.80;;;;;;5023043;27;93501;-52
2022/07/03 12:49:32;;;;;;;59.80;50.03;;;24.40;56.90;;;;;;5019768;27;89825;-51
2022/07/03 12:51:58;;;;;;;59.42;50.00;;;24.40;56.90;;;;;;5030467;27;90087;-53